Time;durP1;ratioP1;P1;durP2;ratioP2;P2;SDS_P1;SDS_P2;PMS_P1;PMS_P2;Temp;Humidity;BMP_temperature;BMP_pressure;BME280_temperature;BME280_humidity;BME280_pressure;Samples;Min_cycle;Max_cycle;Signal;HPM_P1;HPM_P2
2022/09/17 00:01:53;;;;;;;;;;;16.60;49.50;;;14.58;53.30;99896.22;12263349;19;19919;-84
2022/09/17 00:06:13;;;;;;;;;;;16.60;49.40;;;14.50;53.46;99881.13;12257527;19;20357;-84
2022/09/17 00:10:15;;;;;;;;;;;16.60;49.40;;;14.57;53.47;99892.78;12261479;19;19949;-85
2022/09/17 00:14:16;;;;;;;;;;;16.60;49.50;;;14.63;53.33;99896.69;12259435;19;19919;-84
2022/09/17 00:18:18;;;;;;;;;;;16.60;49.60;;;14.60;53.45;99895.13;12264829;19;19927;-85
2022/09/17 00:22:20;;;;;;;;;;;16.60;49.70;;;14.73;53.39;99915.13;12262596;19;19926;-84
2022/09/17 00:26:21;;;;;;;;;;;16.60;49.40;;;14.72;53.54;99908.22;12257678;19;19919;-85
2022/09/17 00:30:22;;;;;;;;;;;16.70;49.70;;;14.60;53.56;99897.75;12265329;19;19919;-85
2022/09/17 00:34:24;;;;;;;;;;;16.60;50.10;;;14.75;53.61;99924.56;12259464;19;20702;-84
2022/09/17 00:38:26;;;;;;;;;;;16.70;50.10;;;14.77;53.73;99921.78;12261774;19;19926;-85
2022/09/17 00:42:27;;;;;;;;;;;16.60;50.00;;;14.75;53.51;99918.47;12258390;19;19915;-85
2022/09/17 00:46:42;;;;;;;;;;;16.60;50.00;;;14.75;53.67;99934.22;12253403;19;19948;-85
2022/09/17 00:50:43;;;;;;;;;;;16.60;49.90;;;14.60;53.68;99903.03;12258968;19;19929;-84
2022/09/17 00:54:50;;;;;;;;;;;16.70;50.20;;;14.71;53.83;99930.19;12255142;19;19926;-84
2022/09/17 00:58:53;;;;;;;;;;;16.60;50.00;;;14.66;53.98;99922.69;12272219;19;19925;-84
2022/09/17 01:02:55;;;;;;;;;;;16.70;50.20;;;14.66;53.86;99940.25;12264522;19;19922;-84
2022/09/17 01:07:18;;;;;;;;;;;16.60;50.40;;;14.74;53.97;99950.94;12262931;19;19973;-83
2022/09/17 01:11:45;;;;;;;;;;;16.70;50.40;;;14.77;53.90;99955.94;12262567;19;19918;-83
2022/09/17 01:15:55;;;;;;;;;;;16.90;50.20;;;14.74;53.96;99948.31;12256851;19;20325;-84
2022/09/17 01:20:17;;;;;;;;;;;16.70;50.20;;;14.82;53.88;99961.63;12260364;19;19973;-84
2022/09/17 01:24:55;;;;;;;;;;;16.70;50.30;;;14.81;53.86;99970.50;12257347;19;19938;-84
2022/09/17 01:29:14;;;;;;;;;;;16.70;50.30;;;14.83;53.92;99972.03;12260487;19;19911;-84
2022/09/17 01:33:45;;;;;;;;;;;16.70;50.20;;;14.84;54.06;99980.75;12255763;19;19939;-85
2022/09/17 01:38:10;;;;;;;;;;;16.70;50.30;;;14.82;54.06;99973.00;12261351;19;19915;-84
2022/09/17 01:42:30;;;;;;;;;;;16.70;50.40;;;14.82;54.04;99964.28;12258011;19;19911;-83
2022/09/17 01:46:43;;;;;;;;;;;16.80;50.60;;;14.87;54.18;99977.03;12255777;19;20455;-84
2022/09/17 01:50:54;;;;;;;;;;;16.70;50.50;;;14.74;54.17;99949.19;12260660;19;19910;-84
2022/09/17 01:54:59;;;;;;;;;;;16.70;50.60;;;14.81;54.13;99967.88;12253432;19;19918;-84
2022/09/17 01:59:23;;;;;;;;;;;16.70;50.60;;;14.91;54.14;99979.28;12260337;19;19948;-84
2022/09/17 02:03:31;;;;;;;;;;;16.70;50.40;;;14.79;54.08;99951.38;12256164;19;20273;-84
2022/09/17 02:07:37;;;;;;;;;;;16.80;50.40;;;14.93;54.24;99985.25;12256903;19;19934;-84
2022/09/17 02:11:40;;;;;;;;;;;16.80;50.50;;;14.87;54.26;99972.59;12254994;19;19944;-85
2022/09/17 02:15:56;;;;;;;;;;;16.90;50.30;;;14.91;54.15;99981.91;12253350;19;19918;-85
2022/09/17 02:19:58;;;;;;;;;;;16.90;50.50;;;14.86;54.21;99965.69;12253745;19;19955;-85
2022/09/17 02:24:22;;;;;;;;;;;16.80;50.40;;;15.00;54.36;99991.63;12254831;19;20316;-85
2022/09/17 02:28:32;;;;;;;;;;;16.90;50.40;;;15.01;54.20;99982.78;12255702;19;19919;-84
2022/09/17 02:32:35;;;;;;;;;;;16.90;50.70;;;14.64;54.30;99932.53;12251784;19;19918;-84
2022/09/17 02:36:36;;;;;;;;;;;16.90;50.60;;;14.99;54.49;99987.34;12256897;19;19911;-84
2022/09/17 02:40:46;;;;;;;;;;;16.90;50.40;;;14.86;54.52;99965.69;12255486;19;20281;-84
2022/09/17 02:44:54;;;;;;;;;;;16.80;50.30;;;15.03;54.45;100001.88;12252669;19;20375;-84
2022/09/17 02:49:23;;;;;;;;;;;16.90;50.50;;;15.02;54.44;99994.97;12255591;19;20012;-85
2022/09/17 02:54:04;;;;;;;;;;;16.90;50.60;;;14.90;54.50;99979.38;12250399;19;20325;-84
2022/09/17 02:58:31;;;;;;;;;;;16.90;50.60;;;15.00;54.50;99986.34;12264433;19;19907;-84
2022/09/17 03:02:40;;;;;;;;;;;16.90;50.60;;;14.96;54.47;99977.09;12255709;19;20462;-84
2022/09/17 03:06:44;;;;;;;;;;;16.90;50.60;;;14.97;54.59;99970.03;12257633;19;20232;-84
2022/09/17 03:10:48;;;;;;;;;;;17.00;51.10;;;15.00;54.39;99975.84;12255898;19;19915;-84
2022/09/17 03:14:49;;;;;;;;;;;17.10;50.80;;;15.05;54.59;99984.19;12255531;19;19914;-84
2022/09/17 03:18:50;;;;;;;;;;;17.30;50.70;;;14.78;54.55;99933.97;12258642;19;19918;-85
2022/09/17 03:22:52;;;;;;;;;;;17.00;50.70;;;15.07;54.71;99985.81;12255164;19;19915;-84
2022/09/17 03:26:54;;;;;;;;;;;16.90;50.80;;;14.98;54.68;99979.56;12256832;19;19923;-85
2022/09/17 03:30:55;;;;;;;;;;;17.00;50.90;;;15.05;54.75;99981.53;12258988;19;19921;-85
2022/09/17 03:34:57;;;;;;;;;;;16.90;50.80;;;15.09;54.76;99979.47;12251219;19;19934;-85
2022/09/17 03:38:59;;;;;;;;;;;17.00;50.80;;;14.93;54.69;99953.69;12254418;19;19975;-85
2022/09/17 03:43:00;;;;;;;;;;;17.00;50.80;;;15.10;54.85;99986.41;12252281;19;19919;-85
2022/09/17 03:47:02;;;;;;;;;;;17.10;50.70;;;14.99;54.62;99957.59;12254688;19;20716;-85
2022/09/17 03:51:04;;;;;;;;;;;17.10;50.80;;;15.12;54.75;99978.38;12251909;19;19917;-85
2022/09/17 03:55:06;;;;;;;;;;;17.00;50.80;;;15.17;54.81;99994.59;12250380;19;19923;-85
2022/09/17 03:59:07;;;;;;;;;;;17.00;50.80;;;15.19;54.79;100000.56;12251243;19;19919;-84
2022/09/17 04:03:09;;;;;;;;;;;17.00;50.80;;;15.17;54.80;99994.59;12250258;19;19915;-85
2022/09/17 04:07:10;;;;;;;;;;;17.00;50.80;;;15.11;54.80;99988.06;12255458;19;19911;-85
2022/09/17 04:11:12;;;;;;;;;;;17.10;50.90;;;15.10;54.96;99981.16;12255202;19;19951;-85
2022/09/17 04:15:13;;;;;;;;;;;17.10;50.90;;;14.95;54.94;99950.91;12245768;19;20166;-84
2022/09/17 04:19:15;;;;;;;;;;;17.30;51.10;;;15.18;55.03;99985.75;12251664;19;20254;-84
2022/09/17 04:23:16;;;;;;;;;;;17.10;51.00;;;15.15;55.06;99988.63;12249955;19;19955;-84
2022/09/17 04:27:18;;;;;;;;;;;17.10;50.90;;;15.04;55.13;99958.00;12251234;19;19937;-85
2022/09/17 04:31:21;;;;;;;;;;;17.10;50.90;;;15.12;55.13;99976.59;12250007;19;19939;-85
2022/09/17 04:35:22;;;;;;;;;;;17.10;50.90;;;15.08;55.11;99972.56;12244463;19;19925;-84
2022/09/17 04:39:24;;;;;;;;;;;17.10;50.90;;;14.80;55.00;99932.03;12253993;19;19914;-83
2022/09/17 04:43:25;;;;;;;;;;;17.10;51.00;;;15.21;54.98;99999.47;12255950;19;19926;-84
2022/09/17 04:47:27;;;;;;;;;;;17.10;50.90;;;14.96;55.00;99957.81;12263018;19;19966;-84
2022/09/17 04:51:28;;;;;;;;;;;17.10;51.00;;;15.19;55.02;100003.19;12262039;19;19922;-85
2022/09/17 04:55:30;;;;;;;;;;;17.10;51.30;;;15.08;55.07;99988.34;12264709;19;19931;-85
2022/09/17 04:59:31;;;;;;;;;;;17.10;51.10;;;15.20;55.14;100012.75;12272247;19;19929;-85
2022/09/17 05:03:33;;;;;;;;;;;17.50;51.20;;;15.21;55.28;100017.06;12255784;19;19932;-84
2022/09/17 05:07:38;;;;;;;;;;;17.10;50.90;;;15.20;55.29;100016.22;12261557;19;20669;-85
2022/09/17 05:11:39;;;;;;;;;;;17.30;51.10;;;15.20;55.27;100023.25;12260282;19;19915;-84
2022/09/17 05:15:41;;;;;;;;;;;17.20;51.10;;;15.26;55.10;100033.28;12251739;19;20016;-84
2022/09/17 05:19:42;;;;;;;;;;;17.10;50.90;;;15.19;55.15;100021.59;12253519;19;19914;-84
2022/09/17 05:23:44;;;;;;;;;;;17.10;50.90;;;15.33;55.22;100037.03;12250671;19;19918;-84
2022/09/17 05:27:45;;;;;;;;;;;17.40;51.10;;;15.33;55.30;100033.56;12256603;19;19971;-84
2022/09/17 05:31:47;;;;;;;;;;;17.40;51.10;;;15.41;55.45;100044.25;12251979;19;19915;-86
2022/09/17 05:35:48;;;;;;;;;;;17.30;50.90;;;15.43;55.23;100047.59;12249216;19;20290;-86
2022/09/17 05:39:50;;;;;;;;;;;17.30;51.00;;;15.24;55.46;100016.78;12255520;19;19911;-86
2022/09/17 05:43:51;;;;;;;;;;;17.30;51.00;;;15.40;55.29;100045.25;12250734;19;19930;-85
2022/09/17 05:47:57;;;;;;;;;;;17.30;51.00;;;15.30;55.27;100028.56;12251336;19;19915;-86
2022/09/17 05:51:58;;;;;;;;;;;17.70;51.20;;;15.47;55.33;100049.84;12252729;19;19923;-86
2022/09/17 05:56:00;;;;;;;;;;;17.40;51.10;;;15.53;55.40;100060.78;12245774;19;19931;-83
2022/09/17 06:00:02;;;;;;;;;;;17.40;51.10;;;15.43;55.52;100037.06;12248741;19;19919;-85
2022/09/17 06:04:13;;;;;;;;;;;17.40;51.10;;;15.27;55.43;100000.72;12244524;19;19919;-86
2022/09/17 06:08:14;;;;;;;;;;;17.40;51.20;;;15.45;55.40;100030.72;12253027;19;19925;-83
2022/09/17 06:12:16;;;;;;;;;;;17.40;51.10;;;15.62;55.23;100049.47;12248619;19;19923;-83
2022/09/17 06:16:19;;;;;;;;;;;17.50;51.30;;;15.65;55.53;100057.91;12247529;19;19938;-83
2022/09/17 06:20:21;;;;;;;;;;;17.50;51.10;;;15.62;55.53;100052.94;12252835;19;19911;-84
2022/09/17 06:24:22;;;;;;;;;;;17.50;51.10;;;15.37;55.53;100008.69;12247622;19;19922;-83
2022/09/17 06:28:25;;;;;;;;;;;17.90;51.30;;;15.74;55.63;100068.63;12250795;19;19920;-83
2022/09/17 06:32:27;;;;;;;;;;;17.70;51.20;;;15.77;55.33;100069.22;12244527;19;20273;-84
2022/09/17 06:36:29;;;;;;;;;;;17.60;51.30;;;15.78;55.48;100072.69;12245201;19;19918;-85
2022/09/17 06:40:31;;;;;;;;;;;17.60;51.30;;;15.57;55.45;100046.41;12245311;19;20265;-85
2022/09/17 06:44:32;;;;;;;;;;;17.60;51.50;;;15.62;55.76;100073.16;12241341;19;19927;-83
2022/09/17 06:48:34;;;;;;;;;;;17.60;51.40;;;15.59;55.72;100074.25;12247696;19;19939;-84
2022/09/17 06:52:37;;;;;;;;;;;17.50;51.50;;;15.49;55.80;100065.47;12247055;19;20332;-86
2022/09/17 06:56:39;;;;;;;;;;;17.50;51.40;;;15.27;55.77;100021.78;12258517;19;19907;-85
2022/09/17 07:00:40;;;;;;;;;;;17.70;51.60;;;15.51;55.65;100058.28;12250233;19;20284;-85
2022/09/17 07:04:41;;;;;;;;;;;17.90;51.80;;;15.56;55.77;100071.88;12246582;19;19928;-86
2022/09/17 07:08:43;;;;;;;;;;;17.50;51.80;;;15.64;55.79;100079.94;12249815;19;19915;-87
2022/09/17 07:12:45;;;;;;;;;;;17.50;51.80;;;15.56;55.87;100056.09;12246329;19;19933;-86
2022/09/17 07:16:47;;;;;;;;;;;17.50;51.80;;;15.61;55.96;100059.16;12244636;19;19975;-85
2022/09/17 07:20:56;;;;;;;;;;;17.70;51.40;;;15.74;56.11;100073.91;12233245;19;19921;-86
2022/09/17 07:24:57;;;;;;;;;;;17.50;51.70;;;15.79;56.04;100076.97;12246305;19;19964;-85
2022/09/17 07:28:58;;;;;;;;;;;17.60;51.80;;;15.79;55.88;100063.81;12247240;19;19919;-85
2022/09/17 07:33:01;;;;;;;;;;;17.80;51.90;;;15.95;55.93;100079.09;12243157;19;19915;-86
2022/09/17 07:37:02;;;;;;;;;;;17.70;51.40;;;15.65;55.92;100028.13;12248426;19;19935;-85
2022/09/17 07:41:15;;;;;;;;;;;17.80;51.90;;;15.90;55.79;100064.56;12246168;19;19918;-86
2022/09/17 07:45:16;;;;;;;;;;;17.80;51.80;;;15.89;55.89;100067.31;12240555;19;19935;-84
2022/09/17 07:49:18;;;;;;;;;;;18.20;52.20;;;15.83;55.87;100055.53;12241032;19;19982;-84
2022/09/17 07:53:21;;;;;;;;;;;17.80;51.70;;;15.51;56.13;100016.19;12243398;19;20020;-85
2022/09/17 07:57:23;;;;;;;;;;;18.10;51.70;;;15.89;55.92;100075.22;12244417;19;19930;-85
2022/09/17 08:01:26;;;;;;;;;;;17.80;51.50;;;15.95;56.04;100079.09;12245058;19;19947;-85
2022/09/17 08:05:27;;;;;;;;;;;17.80;51.60;;;15.80;55.97;100065.50;12240016;19;19926;-85
2022/09/17 08:09:28;;;;;;;;;;;17.80;51.60;;;15.82;55.82;100074.91;12247203;19;20358;-85
2022/09/17 08:13:30;;;;;;;;;;;17.80;51.60;;;15.83;55.80;100067.84;12241910;19;19922;-84
2022/09/17 08:17:32;;;;;;;;;;;17.80;51.50;;;15.93;55.91;100084.47;12238379;19;19923;-85
2022/09/17 08:21:33;;;;;;;;;;;17.80;51.70;;;15.87;56.16;100080.59;12260795;19;20383;-85
2022/09/17 08:25:35;;;;;;;;;;;17.80;51.30;;;15.54;55.85;100018.53;12253504;19;19930;-85
2022/09/17 08:29:36;;;;;;;;;;;17.80;51.50;;;15.97;56.05;100091.16;12178000;19;20446;-86
2022/09/17 08:33:39;;;;;;;;;;;17.90;51.50;;;15.93;56.06;100068.69;12152858;19;20274;-86
2022/09/17 08:42:56;;;;;;;;;;;17.90;51.30;;;16.05;56.02;100079.97;12259780;19;19966;-86
2022/09/17 08:47:21;;;;;;;;;;;17.90;51.20;;;16.10;56.19;100081.22;12257908;19;20240;-86
2022/09/17 08:51:27;;;;;;;;;;;17.90;51.30;;;16.11;55.86;100076.78;12256331;19;20638;-85
2022/09/17 08:55:33;;;;;;;;;;;18.00;51.50;;;16.18;56.08;100077.91;12258620;19;19915;-86
2022/09/17 08:59:46;;;;;;;;;;;18.10;51.30;;;16.02;56.06;100040.72;12261762;19;20359;-85
2022/09/17 09:04:12;;;;;;;;;;;18.10;51.20;;;16.42;55.95;100095.09;12256412;19;19915;-86
2022/09/17 09:08:35;;;;;;;;;;;18.20;51.20;;;16.43;55.96;100083.59;12262984;19;19978;-86
2022/09/17 09:12:38;;;;;;;;;;;18.30;51.10;;;16.49;56.03;100069.88;12260679;19;19915;-86
2022/09/17 09:16:44;;;;;;;;;;;18.30;51.00;;;16.55;55.78;100079.84;12261019;19;19911;-86
2022/09/17 09:20:54;;;;;;;;;;;18.40;50.80;;;16.82;55.98;100102.91;12262645;19;20317;-87
2022/09/17 09:25:12;;;;;;;;;;;18.50;50.90;;;16.95;55.65;100124.53;12257294;19;19915;-87
2022/09/17 09:29:28;;;;;;;;;;;18.60;50.60;;;16.92;55.57;100118.72;12260549;19;19919;-86
2022/09/17 09:33:34;;;;;;;;;;;18.70;50.30;;;16.87;55.84;100124.41;12249799;19;19939;-86
2022/09/17 09:37:38;;;;;;;;;;;18.70;50.30;;;16.78;55.77;100104.16;12252010;19;20120;-85
2022/09/17 09:41:44;;;;;;;;;;;18.70;50.20;;;16.68;55.59;100104.13;12250343;19;20253;-86
2022/09/17 09:46:05;;;;;;;;;;;19.00;50.20;;;16.80;55.64;100132.06;12248646;19;19922;-86
2022/09/17 09:50:25;;;;;;;;;;;18.70;50.10;;;16.83;55.81;100123.03;12251588;19;19915;-86
2022/09/17 09:54:44;;;;;;;;;;;18.70;50.10;;;16.93;55.90;100128.28;12248330;19;19907;-86
2022/09/17 09:58:45;;;;;;;;;;;18.70;50.30;;;17.08;55.77;100124.25;12249390;19;19923;-85
2022/09/17 10:02:47;;;;;;;;;;;18.80;50.30;;;17.21;55.53;100131.88;12249630;19;19927;-86
2022/09/17 10:06:52;;;;;;;;;;;18.90;50.20;;;17.25;55.75;100120.03;12249039;19;19918;-85
2022/09/17 10:10:55;;;;;;;;;;;19.00;50.10;;;17.40;55.63;100129.19;12250960;19;19907;-85
2022/09/17 10:15:17;;;;;;;;;;;19.10;50.00;;;16.90;55.28;100057.34;12248762;19;20314;-85
2022/09/17 10:19:23;;;;;;;;;;;19.10;49.60;;;17.31;55.39;100156.44;12246243;19;19922;-84
2022/09/17 10:23:28;;;;;;;;;;;19.50;49.80;;;17.27;55.19;100175.31;12245877;19;19907;-84
2022/09/17 10:27:30;;;;;;;;;;;19.20;49.70;;;17.10;55.29;100169.78;12247337;19;19939;-85
2022/09/17 10:31:51;;;;;;;;;;;19.10;49.70;;;16.96;55.54;100162.31;12247525;19;19967;-84
2022/09/17 10:36:14;;;;;;;;;;;19.00;49.70;;;16.86;55.63;100162.31;12244483;19;20321;-84
2022/09/17 10:40:18;;;;;;;;;;;18.90;49.80;;;16.83;55.58;100174.94;12246649;19;19918;-85
2022/09/17 10:44:21;;;;;;;;;;;18.80;50.00;;;16.85;55.80;100160.66;12245881;19;19915;-85
2022/09/17 10:48:23;;;;;;;;;;;18.80;50.30;;;17.00;55.55;100139.94;12246251;19;20271;-84
2022/09/17 10:52:38;;;;;;;;;;;18.70;50.60;;;17.29;55.90;100144.34;12257552;19;19986;-85
2022/09/17 10:56:43;;;;;;;;;;;18.90;51.00;;;17.46;55.58;100131.22;12248255;19;20856;-85
2022/09/17 11:00:53;;;;;;;;;;;19.00;51.00;;;17.64;55.43;100156.91;12245663;19;19927;-83
2022/09/17 11:05:31;;;;;;;;;;;19.20;50.80;;;17.68;55.38;100158.25;12248167;19;19919;-83
2022/09/17 11:10:21;;;;;;;;;;;19.40;50.50;;;17.58;55.50;100184.72;12245012;19;19919;-83
2022/09/17 11:14:47;;;;;;;;;;;19.40;50.50;;;17.37;55.55;100166.41;12246814;19;20339;-84
2022/09/17 11:19:04;;;;;;;;;;;19.30;50.20;;;17.13;55.55;100158.97;12250117;19;20000;-85
2022/09/17 11:23:43;;;;;;;;;;;19.20;50.20;;;17.20;55.54;100170.63;12245548;19;20556;-85
2022/09/17 11:28:09;;;;;;;;;;;19.10;50.40;;;17.19;55.58;100166.31;12245734;19;19915;-84
2022/09/17 11:32:28;;;;;;;;;;;19.10;50.60;;;17.04;55.71;100146.63;12248661;19;19944;-84
2022/09/17 11:36:41;;;;;;;;;;;19.00;50.60;;;17.12;55.78;100156.44;12247976;19;20362;-83
2022/09/17 11:41:01;;;;;;;;;;;19.00;50.70;;;16.97;55.86;100141.06;12245764;19;20322;-83
2022/09/17 11:45:19;;;;;;;;;;;19.00;50.80;;;17.00;55.83;100140.78;12244179;19;19915;-84
2022/09/17 11:49:31;;;;;;;;;;;19.00;50.80;;;17.11;55.70;100142.44;12246200;19;19946;-83
2022/09/17 11:53:45;;;;;;;;;;;18.90;51.00;;;17.18;55.71;100148.81;12253418;19;19915;-84
2022/09/17 11:57:50;;;;;;;;;;;18.90;50.90;;;17.27;55.63;100138.38;12258348;19;19910;-84
2022/09/17 12:02:03;;;;;;;;;;;19.00;50.90;;;17.32;56.02;100115.03;12256433;19;19922;-84
2022/09/17 12:06:28;;;;;;;;;;;19.10;50.90;;;17.59;55.94;100143.28;12250065;19;19919;-83
2022/09/17 12:10:30;;;;;;;;;;;19.20;50.90;;;17.73;55.71;100147.28;12252710;19;19962;-84
2022/09/17 12:14:43;;;;;;;;;;;19.60;50.70;;;17.68;55.38;100148.53;12255142;19;19915;-83
2022/09/17 12:19:22;;;;;;;;;;;19.40;50.00;;;17.62;55.56;100145.66;12256183;19;20019;-83
2022/09/17 12:23:47;;;;;;;;;;;19.40;49.80;;;17.43;55.65;100110.41;12251759;19;19919;-82
2022/09/17 12:28:01;;;;;;;;;;;19.40;49.70;;;17.56;55.69;100112.72;12253922;19;19915;-82
2022/09/17 12:32:42;;;;;;;;;;;19.40;49.80;;;17.69;55.54;100126.44;12252688;19;20342;-84
2022/09/17 12:37:13;;;;;;;;;;;19.40;49.70;;;17.72;55.46;100122.69;12255678;19;19955;-83
2022/09/17 12:41:19;;;;;;;;;;;19.50;49.70;;;17.65;55.24;100111.03;12253838;19;20257;-83
2022/09/17 12:45:31;;;;;;;;;;;19.50;49.10;;;17.77;55.23;100114.28;12249597;19;20340;-83
2022/09/17 12:49:47;;;;;;;;;;;19.50;49.40;;;17.85;55.09;100119.75;12263566;19;20242;-82
2022/09/17 12:54:07;;;;;;;;;;;19.90;49.40;;;17.88;55.10;100132.66;12253299;19;19979;-83
2022/09/17 12:58:37;;;;;;;;;;;19.60;49.20;;;17.78;55.24;100131.81;12259625;19;19990;-84
2022/09/17 13:03:22;;;;;;;;;;;19.60;47.30;;;17.64;55.21;100120.75;12255475;19;19935;-84
2022/09/17 13:07:57;;;;;;;;;;;19.60;48.00;;;17.69;55.34;100123.81;12250680;19;19982;-84
2022/09/17 13:12:12;;;;;;;;;;;19.50;48.40;;;17.66;55.05;100096.81;12251762;19;21517;-83
2022/09/17 13:16:35;;;;;;;;;;;19.60;48.70;;;17.77;54.74;100096.66;12249816;19;19915;-83
2022/09/17 13:20:45;;;;;;;;;;;19.60;48.60;;;17.81;54.96;100103.34;12253297;19;20286;-84
2022/09/17 13:24:59;;;;;;;;;;;19.60;48.10;;;17.84;55.05;100091.66;12252351;19;20348;-84
2022/09/17 13:29:03;;;;;;;;;;;19.70;48.40;;;17.97;54.74;100117.72;12253374;19;20360;-84
2022/09/17 13:33:04;;;;;;;;;;;19.80;48.80;;;17.85;54.54;100088.88;12251821;19;20260;-83
2022/09/17 13:37:19;;;;;;;;;;;19.80;49.00;;;17.97;54.71;100102.69;12254114;19;19927;-84
2022/09/17 13:41:23;;;;;;;;;;;19.80;48.00;;;17.93;54.85;100111.91;12252146;19;19910;-84
2022/09/17 13:45:25;;;;;;;;;;;19.80;48.30;;;18.00;54.67;100112.97;12247843;19;19922;-84
2022/09/17 13:49:27;;;;;;;;;;;19.90;47.80;;;17.84;54.56;100099.56;12251730;19;19966;-83
2022/09/17 13:53:28;;;;;;;;;;;19.80;47.50;;;17.79;54.65;100088.59;12246943;19;19923;-84
2022/09/17 13:57:32;;;;;;;;;;;20.00;47.30;;;17.86;54.70;100094.97;12250895;19;20252;-83
2022/09/17 14:02:00;;;;;;;;;;;19.70;46.90;;;17.99;54.42;100107.84;12251362;19;19919;-84
2022/09/17 14:06:05;;;;;;;;;;;19.80;47.30;;;17.99;54.38;100111.31;12247649;19;20264;-84
2022/09/17 14:10:15;;;;;;;;;;;19.80;46.40;;;17.97;54.31;100100.06;12243510;19;19935;-84
2022/09/17 14:14:25;;;;;;;;;;;19.80;46.50;;;17.95;54.30;100112.56;12246721;19;19915;-83
2022/09/17 14:18:27;;;;;;;;;;;19.80;46.60;;;17.92;54.09;100108.41;12250179;19;20513;-84
2022/09/17 14:22:28;;;;;;;;;;;20.00;46.90;;;17.95;54.02;100104.66;12252664;19;19923;-83
2022/09/17 14:26:49;;;;;;;;;;;19.80;46.80;;;18.03;54.27;100098.63;12252659;19;20292;-83
2022/09/17 14:30:51;;;;;;;;;;;19.80;47.10;;;18.00;54.23;100083.06;12251731;19;20329;-84
2022/09/17 14:34:52;;;;;;;;;;;19.80;47.20;;;18.04;54.08;100095.03;12246216;19;19938;-84
2022/09/17 14:38:55;;;;;;;;;;;19.90;46.80;;;17.98;53.84;100082.38;12250576;19;20008;-84
2022/09/17 14:42:57;;;;;;;;;;;20.20;47.30;;;17.90;54.08;100064.63;12241842;19;20338;-84
2022/09/17 14:47:07;;;;;;;;;;;19.80;47.00;;;18.05;54.11;100084.28;12250987;19;19914;-84
2022/09/17 14:51:17;;;;;;;;;;;20.10;47.10;;;18.13;53.85;100097.59;12245695;19;19927;-84
2022/09/17 14:55:25;;;;;;;;;;;19.90;46.90;;;18.09;53.74;100071.59;12243372;19;19914;-84
2022/09/17 14:59:40;;;;;;;;;;;19.90;45.20;;;18.19;53.68;100095.34;12248686;19;19955;-84
2022/09/17 15:03:42;;;;;;;;;;;20.20;46.40;;;18.07;53.65;100097.38;12244850;19;20282;-84
2022/09/17 15:07:45;;;;;;;;;;;19.90;46.00;;;18.09;53.70;100106.81;12245549;19;19926;-84
2022/09/17 15:11:46;;;;;;;;;;;19.90;45.30;;;17.96;53.77;100085.19;12245352;19;19919;-83
2022/09/17 15:15:57;;;;;;;;;;;19.90;46.40;;;18.04;53.73;100108.25;12240906;19;19943;-83
2022/09/17 15:20:02;;;;;;;;;;;19.90;46.70;;;17.66;53.69;100065.16;12245633;19;19922;-83
2022/09/17 15:24:21;;;;;;;;;;;19.80;46.40;;;17.70;53.71;100087.66;12241379;19;19953;-83
2022/09/17 15:28:29;;;;;;;;;;;19.80;46.70;;;17.78;53.75;100119.44;12242311;19;19919;-83
2022/09/17 15:32:32;;;;;;;;;;;19.70;46.70;;;17.72;53.71;100122.69;12242540;19;19918;-83
2022/09/17 15:36:33;;;;;;;;;;;20.00;46.80;;;17.57;53.75;100110.91;12242525;19;19931;-84
2022/09/17 15:40:41;;;;;;;;;;;19.50;46.70;;;17.27;53.76;100078.50;12245638;19;19927;-84
2022/09/17 15:44:42;;;;;;;;;;;19.50;46.50;;;16.99;53.71;100035.44;12240973;19;19992;-84
2022/09/17 15:48:43;;;;;;;;;;;19.40;46.40;;;17.37;53.63;100096.97;12246279;19;19943;-84
2022/09/17 15:52:46;;;;;;;;;;;19.30;46.40;;;17.34;53.67;100105.19;12242886;19;19926;-83
2022/09/17 15:56:53;;;;;;;;;;;19.20;46.10;;;17.16;53.72;100079.53;12242397;19;19928;-84
2022/09/17 16:01:27;;;;;;;;;;;19.20;46.00;;;17.22;53.74;100101.84;12243983;19;19923;-84
2022/09/17 16:05:35;;;;;;;;;;;19.10;46.00;;;17.15;53.41;100112.16;12239890;19;19918;-85
2022/09/17 16:09:42;;;;;;;;;;;19.10;45.80;;;17.09;53.75;100125.91;12244539;19;19923;-85
2022/09/17 16:13:48;;;;;;;;;;;19.00;45.80;;;16.92;53.67;100113.44;12243828;19;19911;-85
2022/09/17 16:17:49;;;;;;;;;;;18.90;46.00;;;16.96;53.41;100120.13;12248261;19;19935;-86
2022/09/17 16:21:50;;;;;;;;;;;18.90;46.10;;;16.87;53.55;100120.94;12244886;19;19939;-85
2022/09/17 16:25:52;;;;;;;;;;;18.80;45.90;;;16.56;53.45;100092.06;12243883;19;19914;-85
2022/09/17 16:30:00;;;;;;;;;;;19.00;45.80;;;16.64;53.54;100120.38;12247281;19;19994;-84
2022/09/17 16:34:02;;;;;;;;;;;18.70;45.70;;;16.54;53.45;100131.72;12242351;19;19917;-84
2022/09/17 16:38:03;;;;;;;;;;;18.60;45.40;;;16.29;53.48;100100.66;12250172;19;19919;-84
2022/09/17 16:42:05;;;;;;;;;;;18.40;45.80;;;15.99;53.48;100080.50;12261786;19;19919;-84
2022/09/17 16:46:09;;;;;;;;;;;18.30;45.90;;;16.24;53.48;100132.66;12260823;19;20269;-84
2022/09/17 16:50:13;;;;;;;;;;;18.30;46.10;;;16.08;53.33;100124.47;12260180;19;19914;-84
2022/09/17 16:54:14;;;;;;;;;;;18.20;46.00;;;16.14;53.44;100150.25;12254123;19;20340;-84
2022/09/17 16:58:15;;;;;;;;;;;18.10;46.10;;;15.95;53.41;100137.03;12260435;19;19915;-84
2022/09/17 17:02:17;;;;;;;;;;;18.00;45.90;;;15.81;53.52;100138.22;12258746;19;20337;-84
2022/09/17 17:06:20;;;;;;;;;;;18.10;46.10;;;15.80;53.42;100145.31;12253552;19;19923;-84
2022/09/17 17:10:22;;;;;;;;;;;17.80;46.00;;;15.76;53.29;100143.06;12256846;19;20336;-84
2022/09/17 17:14:23;;;;;;;;;;;17.70;46.30;;;15.70;53.23;100141.78;12255108;19;19948;-84
2022/09/17 17:18:25;;;;;;;;;;;17.80;46.40;;;15.72;53.36;100145.13;12259719;19;20349;-83
2022/09/17 17:22:26;;;;;;;;;;;17.80;46.30;;;15.62;53.39;100134.53;12255189;19;19927;-85
2022/09/17 17:26:28;;;;;;;;;;;17.80;46.40;;;15.46;53.62;100113.94;12250842;19;19923;-84
2022/09/17 17:30:29;;;;;;;;;;;17.50;46.20;;;15.42;53.37;100107.28;12256048;19;19911;-84
2022/09/17 17:34:31;;;;;;;;;;;17.60;46.40;;;15.50;53.25;100119.78;12252356;19;20306;-83
2022/09/17 17:38:32;;;;;;;;;;;17.50;46.30;;;15.29;53.28;100093.50;12256727;19;19982;-84
2022/09/17 17:42:36;;;;;;;;;;;17.40;46.40;;;14.99;53.35;100052.25;12257151;19;19929;-85
2022/09/17 17:46:39;;;;;;;;;;;17.70;46.50;;;15.40;53.40;100135.53;12256613;19;19951;-84
2022/09/17 17:50:41;;;;;;;;;;;17.30;46.40;;;15.35;53.23;100132.44;12254517;19;19948;-85
2022/09/17 17:54:43;;;;;;;;;;;17.30;46.50;;;15.24;53.43;100128.09;12254962;19;19936;-84
2022/09/17 17:58:44;;;;;;;;;;;17.20;46.30;;;15.20;53.26;100133.72;12251854;19;19918;-84
2022/09/17 18:02:49;;;;;;;;;;;17.10;46.50;;;15.07;53.47;100127.81;12253979;19;19915;-84
2022/09/17 18:06:50;;;;;;;;;;;17.10;46.50;;;15.12;53.34;100141.44;12257121;19;19971;-84
2022/09/17 18:10:59;;;;;;;;;;;17.00;46.60;;;15.00;53.39;100130.16;12255509;19;20329;-84
2022/09/17 18:15:00;;;;;;;;;;;17.20;46.60;;;14.90;53.51;100142.38;12252247;19;19929;-83
2022/09/17 18:19:02;;;;;;;;;;;17.30;46.70;;;14.99;53.41;100153.00;12247631;19;19915;-83
2022/09/17 18:23:03;;;;;;;;;;;17.00;46.60;;;15.01;53.36;100155.47;12234026;19;19919;-84
2022/09/17 18:27:05;;;;;;;;;;;17.00;46.70;;;14.81;53.48;100122.97;12246122;19;19923;-84
2022/09/17 18:31:18;;;;;;;;;;;17.00;46.80;;;14.98;53.27;100156.56;12247229;19;19931;-83
2022/09/17 18:35:21;;;;;;;;;;;17.30;47.00;;;14.98;53.34;100169.72;12243342;19;19923;-83
2022/09/17 18:39:23;;;;;;;;;;;17.00;46.90;;;14.86;53.26;100154.97;12251900;19;19939;-84
2022/09/17 18:43:24;;;;;;;;;;;16.90;46.90;;;14.64;53.49;100115.63;12248270;19;19918;-83